Flight Track Log - Related Links

Times and Time Zones

All times are in EST time to prevent confusion due to time zone crossing. See the N143DE flight status page for this flight to view local times or setup timezone preferences in your user account.

Time Position Orientation Groundspeed Altitude Reporting Facility
EST Latitude Longitude Course Direction KTS MPH feet Rate Location/Type
Thu 03:06:33 PM 25.9089 -80.2731 76° East 116 133 300  Level Miami Center
Thu 03:07:04 PM 25.9136 -80.2525 76° East 140 161 1,300 2,204 Climbing Miami Center
Thu 03:08:11 PM 25.9147 -80.1992 89° East 148 170 3,900 2,109 Climbing Miami Center
Thu 03:09:12 PM 25.9444 -80.1747 36° Northeast 163 188 5,800 2,083 Climbing Miami Center
Thu 03:10:12 PM 25.9794 -80.2081 319° Northwest 109 125 8,100 2,100 Climbing Miami Center
Thu 03:11:12 PM 26.0142 -80.2367 323° Northwest 124 143 10,000 1,900 Climbing Miami Center
Thu 03:12:12 PM 26.0594 -80.2658 330° Northwest 160 184 11,900 1,750 Climbing Miami Center
Thu 03:13:12 PM 26.0961 -80.3014 319° Northwest 177 204 13,500 1,600 Climbing Miami Center
Thu 03:14:12 PM 26.1328 -80.3419 315° West 182 209 15,100 1,500 Climbing Miami Center
Thu 03:15:12 PM 26.1675 -80.3822 314° West 182 209 16,500 1,350 Climbing Miami Center
Thu 03:16:12 PM 26.2083 -80.4111 328° Northwest 177 204 17,800 1,000 Climbing Miami Center
Thu 03:17:12 PM 26.2558 -80.4406 331° Northwest 177 204 18,500 900 Climbing Miami Center
Thu 03:18:12 PM 26.3075 -80.4628 339° North 187 215 19,600 1,050 Climbing Miami Center
Thu 03:19:12 PM 26.3547 -80.4897 333° Northwest 187 215 20,600 850 Climbing Miami Center
Thu 03:20:12 PM 26.3981 -80.5189 329° Northwest 187 215 21,300 800 Climbing Miami Center
Thu 03:21:12 PM 26.4517 -80.5392 341° North 192 221 22,200 850 Climbing Miami Center
Thu 03:22:12 PM 26.5056 -80.5547 346° North 197 227 23,000 750 Climbing Miami Center
Thu 03:23:12 PM 26.5572 -80.5797 337° Northwest 197 227 23,700 750 Climbing Miami Center
Thu 03:24:12 PM 26.6025 -80.6067 332° Northwest 186 214 24,500 750 Climbing Miami Center
Thu 03:25:12 PM 26.6544 -80.6197 347° North 186 214 25,200 750 Climbing Miami Center
Thu 03:26:12 PM 26.7081 -80.6378 343° North 191 220 26,000 700 Climbing Miami Center
Thu 03:27:12 PM 26.7514 -80.6625 333° Northwest 184 212 26,600 400 Climbing Miami Center
Thu 03:28:12 PM 26.8031 -80.6875 337° Northwest 184 212 26,800 150 Climbing Miami Center
Thu 03:29:12 PM 26.8586 -80.7103 340° North 195 224 26,900 100 Climbing Miami Center
Thu 03:30:12 PM 26.9208 -80.7286 345° North 215 247 27,000 50 Climbing Miami Center
Thu 03:31:12 PM 26.9850 -80.7469 346° North 226 260 27,000  Level Miami Center
Thu 03:32:12 PM 27.0494 -80.7656 346° North 231 266 27,000 50 Level Miami Center
Thu 03:33:12 PM 27.1092 -80.7908 339° North 236 272 27,100 50 Climbing Miami Center
Thu 03:34:12 PM 27.1667 -80.8231 334° Northwest 231 266 27,100  Level Miami Center
Thu 03:35:12 PM 27.2267 -80.8486 339° North 231 266 27,100  Level Miami Center
Thu 03:36:12 PM 27.2931 -80.8647 348° North 231 266 27,100  Level Miami Center
Thu 03:37:12 PM 27.3617 -80.8742 353° North 242 278 27,100 -100 Level Miami Center
Thu 03:38:12 PM 27.4278 -80.8953 344° North 242 278 26,900  Descending Miami Center
Thu 03:39:12 PM 27.4875 -80.9256 336° Northwest 231 266 27,100  Climbing Miami Center
Thu 03:40:12 PM 27.5494 -80.9533 338° Northwest 231 266 26,900 -100 Descending Miami Center
Thu 03:41:12 PM 27.6092 -80.9767 341° North 231 266 26,900  Level Miami Center
Thu 03:42:12 PM 27.6669 -81.0044 337° Northwest 231 266 26,900 50 Level Miami Center
Thu 03:43:12 PM 27.7331 -81.0256 344° North 231 266 27,000  Climbing Miami Center
Thu 03:44:12 PM 27.8036 -81.0353 353° North 241 277 26,900  Descending Miami Center
Thu 03:45:12 PM 27.8658 -81.0517 347° North 241 277 27,000 50 Climbing Miami Center
Thu 03:46:12 PM 27.9236 -81.0797 337° Northwest 228 262 27,000  Level Miami Center
Thu 03:47:12 PM 27.9728 -81.1097 332° Northwest 223 257 27,000  Level Miami Center
Thu 03:48:12 PM 28.0322 -81.1425 334° Northwest 218 251 27,000  Level Miami Center
Thu 03:49:12 PM 28.0961 -81.1661 342° North 228 262 27,000  Level Miami Center
Thu 03:50:12 PM 28.1561 -81.1872 343° North 233 268 27,000  Level Miami Center
Thu 03:51:12 PM 28.2117 -81.2106 340° North 228 262 27,000  Level Miami Center
Thu 03:52:12 PM 28.2758 -81.2342 342° North 228 262 27,000  Level Miami Center
Thu 03:53:12 PM 28.3439 -81.2603 341° North 228 262 27,000  Level Miami Center
Thu 03:54:29 PM 28.4236 -81.2875 343° North 229 264 27,000  Level Jacksonville Center
Thu 03:55:29 PM 28.4867 -81.3125 341° North 229 264 27,000  Level Jacksonville Center
Thu 03:56:30 PM 28.5475 -81.3375 340° North 229 264 27,000  Level Jacksonville Center
Thu 03:57:29 PM 28.6103 -81.3556 346° North 229 264 27,000  Level Jacksonville Center
Thu 03:58:30 PM 28.6711 -81.3758 344° North 229 264 27,000  Level Jacksonville Center
Thu 03:59:30 PM 28.7339 -81.3961 344° North 229 264 27,000  Level Jacksonville Center
Thu 04:00:29 PM 28.7967 -81.4167 344° North 229 264 27,000  Level Jacksonville Center
Thu 04:01:29 PM 28.8597 -81.4394 342° North 229 264 27,000  Level Jacksonville Center
Thu 04:02:30 PM 28.9203 -81.4575 345° North 229 264 27,000  Level Jacksonville Center
Thu 04:03:29 PM 28.9833 -81.4803 342° North 229 264 27,000  Level Jacksonville Center
Thu 04:04:29 PM 29.0439 -81.5008 343° North 229 264 27,000  Level Jacksonville Center
Thu 04:05:30 PM 29.1069 -81.5236 342° North 229 264 27,000  Level Jacksonville Center
Thu 04:06:29 PM 29.1717 -81.5417 346° North 229 264 27,000  Level Jacksonville Center
Thu 04:07:29 PM 29.2325 -81.5647 342° North 229 264 27,000  Level Jacksonville Center
Thu 04:08:30 PM 29.2933 -81.5853 344° North 229 264 27,000  Level Jacksonville Center
Thu 04:09:29 PM 29.3539 -81.6061 343° North 229 264 27,000 50 Level Jacksonville Center
Thu 04:10:29 PM 29.4169 -81.6267 344° North 229 264 27,100  Climbing Jacksonville Center
Thu 04:11:30 PM 29.4775 -81.6450 345° North 224 258 27,000 -50 Descending Jacksonville Center
Thu 04:12:29 PM 29.5361 -81.6656 343° North 224 258 27,000 50 Level Jacksonville Center
Thu 04:13:29 PM 29.6011 -81.6864 344° North 224 258 27,100  Climbing Jacksonville Center
Thu 04:14:30 PM 29.6597 -81.7072 343° North 224 258 27,000  Descending Jacksonville Center
Thu 04:15:29 PM 29.7206 -81.7278 344° North 224 258 27,100 50 Climbing Jacksonville Center
Thu 04:16:29 PM 29.7811 -81.7464 345° North 224 258 27,100  Level Jacksonville Center
Thu 04:17:30 PM 29.8419 -81.7672 343° North 224 258 27,100  Level Jacksonville Center
Thu 04:18:29 PM 29.9047 -81.7881 344° North 224 258 27,100  Level Jacksonville Center
Thu 04:19:29 PM 29.9633 -81.8064 345° North 224 258 27,100  Level Jacksonville Center
Thu 04:20:30 PM 30.0242 -81.8250 345° North 224 258 27,100  Level Jacksonville Center
Thu 04:21:29 PM 30.0847 -81.8458 343° North 224 258 27,100  Level Jacksonville Center
Thu 04:22:29 PM 30.1433 -81.8669 343° North 224 258 27,100  Level Jacksonville Center
Thu 04:23:30 PM 30.2042 -81.8856 345° North 224 258 27,100  Level Jacksonville Center
Thu 04:24:29 PM 30.2647 -81.9067 343° North 224 258 27,100  Level Jacksonville Center
Thu 04:25:29 PM 30.3233 -81.9156 353° North 229 264 27,100  Level Jacksonville Center
Thu 04:26:29 PM 30.3819 -81.9367 343° North 229 264 27,100  Level Jacksonville Center
Thu 04:27:29 PM 30.4386 -81.9625 339° North 219 252 27,100 -200 Level Jacksonville Center
Thu 04:28:29 PM 30.4889 -81.9933 332° Northwest 213 245 26,700 -595 Descending Jacksonville Center
Thu 04:29:30 PM 30.5494 -82.0217 338° Northwest 218 251 25,900 -793 Descending Jacksonville Center
Thu 04:30:30 PM 30.6186 -82.0525 339° North 242 278 25,100 -454 Descending Jacksonville Center
Thu 04:31:29 PM 30.6856 -82.0786 341° North 255 293 25,000 -300 Descending Jacksonville Center
Thu 04:32:30 PM 30.7506 -82.1044 341° North 249 287 24,500 -500 Descending Jacksonville Center
Thu 04:33:29 PM 30.8197 -82.1306 342° North 249 287 24,000 -252 Descending Jacksonville Center
Thu 04:34:29 PM 30.8803 -82.1542 341° North 243 280 24,000 -350 Level Jacksonville Center
Thu 04:35:29 PM 30.9453 -82.1806 341° North 243 280 23,300 -650 Descending Jacksonville Center
Thu 04:36:29 PM 31.0081 -82.2067 340° North 238 274 22,700 -645 Descending Jacksonville Center
Thu 04:37:30 PM 31.0708 -82.2353 339° North 238 274 22,000 -347 Descending Jacksonville Center
Thu 04:38:30 PM 31.1356 -82.2567 344° North 238 274 22,000  Level Jacksonville Center
Thu 04:39:29 PM 31.1942 -82.2856 337° Northwest 238 274 22,000  Level Jacksonville Center
Thu 04:40:29 PM 31.2547 -82.3069 343° North 233 268 22,000  Level Jacksonville Center
Thu 04:41:30 PM 31.3133 -82.3236 346° North 228 262 22,000  Level Jacksonville Center
Thu 04:42:29 PM 31.3742 -82.3500 340° North 228 262 22,000  Level Jacksonville Center
Thu 04:43:29 PM 31.4325 -82.3717 342° North 228 262 22,000  Level Jacksonville Center
Thu 04:44:30 PM 31.4911 -82.3956 341° North 228 262 22,000  Level Jacksonville Center
Thu 04:45:29 PM 31.5497 -82.4219 339° North 228 262 22,000  Level Jacksonville Center
Thu 04:46:29 PM 31.6103 -82.4461 341° North 233 268 22,000  Level Jacksonville Center
Thu 04:47:30 PM 31.6689 -82.4678 343° North 228 262 22,000  Level Jacksonville Center
Thu 04:48:29 PM 31.7275 -82.4919 341° North 228 262 22,000  Level Jacksonville Center
Thu 04:49:29 PM 31.7903 -82.5161 342° North 228 262 22,000  Level Jacksonville Center
Thu 04:50:30 PM 31.8508 -82.5403 341° North 228 262 22,000  Level Jacksonville Center
Thu 04:51:29 PM 31.9092 -82.5647 340° North 228 262 22,000  Level Jacksonville Center
Thu 04:52:29 PM 31.9700 -82.5889 341° North 233 268 22,000  Level Jacksonville Center
Thu 04:55:30 PM 32.1522 -82.6650 341° North 221 254 22,000  Level Atlanta Center
Thu 04:56:30 PM 32.2150 -82.6911 341° North 221 254 22,000  Level Atlanta Center
Thu 04:57:30 PM 32.2758 -82.7147 342° North 226 260 22,000  Level Atlanta Center
Thu 04:58:30 PM 32.3389 -82.7408 341° North 231 266 22,000  Level Atlanta Center
Thu 04:59:30 PM 32.4017 -82.7669 341° North 236 272 22,000  Level Atlanta Center
Thu 05:00:30 PM 32.4644 -82.7931 341° North 236 272 22,000 -350 Level Atlanta Center
Thu 05:01:30 PM 32.5275 -82.8144 344° North 231 266 21,300 -850 Descending Atlanta Center
Thu 05:02:30 PM 32.5903 -82.8456 337° Northwest 231 266 20,300 -950 Descending Atlanta Center
Thu 05:03:30 PM 32.6347 -82.8969 316° Northwest 225 259 19,400 -900 Descending Atlanta Center
Thu 05:04:30 PM 32.6789 -82.9506 314° West 225 259 18,500 -750 Descending Atlanta Center
Thu 05:05:30 PM 32.7253 -82.9969 320° Northwest 225 259 17,900 -850 Descending Atlanta Center
Thu 05:06:30 PM 32.7736 -83.0458 320° Northwest 225 259 16,800 -1,100 Descending Atlanta Center
Thu 05:07:30 PM 32.8200 -83.0897 322° Northwest 220 253 15,700 -1,050 Descending Atlanta Center
Thu 05:08:30 PM 32.8683 -83.1386 320° Northwest 220 253 14,700 -1,000 Descending Atlanta Center
Thu 05:09:30 PM 32.9147 -83.1853 320° Northwest 215 247 13,700 -1,000 Descending Atlanta Center
Thu 05:10:30 PM 32.9631 -83.2317 321° Northwest 215 247 12,700 -1,000 Descending Atlanta Center
Thu 05:11:30 PM 33.0114 -83.2858 317° Northwest 225 259 11,700 -850 Descending Atlanta Center
Thu 05:12:30 PM 33.0575 -83.3350 318° Northwest 220 253 11,000 -400 Descending Atlanta Center
Thu 05:13:30 PM 33.1078 -83.3817 322° Northwest 215 247 10,900 -50 Descending Atlanta Center
Thu 05:14:30 PM 33.1478 -83.4236 319° Northwest 205 236 10,900 50 Level Atlanta Center
Thu 05:15:30 PM 33.1897 -83.4681 318° Northwest 205 236 11,000 50 Climbing Atlanta Center
Thu 05:16:30 PM 33.2317 -83.5097 320° Northwest 200 230 11,000 -400 Level Atlanta Center
Thu 05:17:30 PM 33.2778 -83.5517 323° Northwest 200 230 10,200 -750 Descending Atlanta Center
Thu 05:19:42 PM 33.3667 -83.6500 317° Northwest 208 239 8,600 -688 Descending Atlanta TRACON
Thu 05:20:42 PM 33.4167 -83.7000 320° Northwest 209 241 8,000 -550 Descending Atlanta TRACON
Thu 05:21:42 PM 33.4667 -83.7333 331° Northwest 196 226 7,500 -800 Descending Atlanta TRACON
Thu 05:22:42 PM 33.5167 -83.7667 331° Northwest 214 246 6,400 -750 Descending Atlanta TRACON
Thu 05:23:42 PM 33.5667 -83.8000 331° Northwest 215 247 6,000 -200 Descending Atlanta TRACON
Thu 05:24:42 PM 33.6333 -83.8167 348° North 208 239 6,000  Level Atlanta TRACON
Thu 05:25:36 PM 33.6833 -83.8333 344° North 208 239 6,000 -53 Level Atlanta TRACON
Thu 05:26:36 PM 33.7333 -83.8333 360° North 210 242 5,900 -48 Descending Atlanta TRACON
Thu 05:27:42 PM 33.8000 -83.8333 360° North 210 242 5,900 47 Level Atlanta TRACON
Thu 05:28:43 PM 33.8500 -83.8500 345° North 200 230 6,000 50 Climbing Atlanta TRACON
Thu 05:29:43 PM 33.8833 -83.9000 309° West 200 230 6,000 -400 Level Atlanta TRACON
Thu 05:30:43 PM 33.9167 -83.9667 301° West 215 247 5,200 -947 Descending Atlanta TRACON
Thu 05:31:37 PM 33.9333 -84.0167 292° West 204 235 4,200 -650 Descending Atlanta TRACON
Thu 05:32:43 PM 33.9667 -84.0833 301° West 185 213 3,900 -95 Descending Atlanta TRACON
Thu 05:33:43 PM 34.0000 -84.1167 320° Northwest 174 200 4,000 50 Climbing Atlanta TRACON
Thu 05:34:43 PM 34.0167 -84.1667 292° West 166 191 4,000 -100 Level Atlanta TRACON
Thu 05:35:43 PM 34.0167 -84.2333 270° West 164 189 3,800 -286 Descending Atlanta TRACON
Thu 05:36:49 PM 34.0167 -84.2833 270° West 176 203 3,400 -238 Descending Atlanta TRACON
Thu 05:37:49 PM 34.0167 -84.3500 270° West 167 192 3,300 50 Descending Atlanta TRACON
Thu 05:38:49 PM 34.0167 -84.4000 270° West 185 213 3,500 50 Climbing Atlanta TRACON
Thu 05:39:49 PM 34.0167 -84.4667 270° West 157 181 3,400 -450 Descending Atlanta TRACON
Thu 05:40:49 PM 34.0167 -84.5000 270° West 119 137 2,600 -700 Descending Atlanta TRACON
Thu 05:41:49 PM 34.0167 -84.5333 270° West 113 130 2,000 -600 Descending Atlanta TRACON
Thu 05:43:00 PM 34.0000 -84.5833 270° West  Level FlightAware Approximate
Thu 05:50:00 PM 34.0132 -84.5971 270° West  Level Estimated

Login

Don't have an account? Register now (free) for customized features, flight alerts, and more!